Petersburg, ND (58272)

6:05 PM CST on February 09, 2016 (GMT -0600)
Larimore | | Change Station
CLOSE
Current Station
Personal Weather Station
Location: Larimore, ND
Elevation: 1125 ft
Nearby Weather Stations
Active Advisory: Special Statement

Elev 1125 ft 47.91 °N, 97.63 °W | Updated 45 seconds ago

Mostly Cloudy
Mostly Cloudy
8.4 °F
Feels Like 8 °F
N
1.7
Wind Variable Wind from West

Today
High -- | Low -- °F
--% Chance of Precip.
Yesterday
High -- | Low -- °F
Precip. -- in
Pressure 30.35 in
Visibility 10.0 miles
Clouds Overcast 4000 ft
Windchill 8 °F
Dew Point 3 °F
Humidity 78%
Rainfall 0.00 in
Snow Depth Not available.
7:48 AM 5:44 PM
Waxing Crescent, 3% visible
METAR KRDR 092358Z AUTO 02010KT 10SM OVC040 M13/M17 A3027 RMK AO2 SNB25E34SNB51E53 SLP277 55003
Pressure 30.35 in
Visibility 10.0 miles
Clouds Overcast 4000 ft
Windchill 8 °F
Dew Point 3 °F
Humidity 78%
Rainfall 0.00 in
Snow Depth Not available.
7:48 AM 5:44 PM
Waxing Crescent, 3% visible
METAR KRDR 092358Z AUTO 02010KT 10SM OVC040 M13/M17 A3027 RMK AO2 SNB25E34SNB51E53 SLP277 55003

10-Day Weather Forecast

Almanac

Astronomy

Feb. 09, 2016 Rise Set
Actual Time
Civil Twilight
Nautical Twilight
Astronomical Twilight
Moon
Length of Visible Light
Length of Day
Tomorrow will be .
, % of the Moon is Illuminated

Today's Extremes

State Highs State Lows

Community

WunderPhotos

Upload Photos

1,891,744 photos uploaded!

WunderBlog® & News

Nearby

Air Quality

  Air Quality AQ Index Pollutant
Not available.

Snow Depth

Station Depth Elevation

Earthquake Activity

City Distance Mag. Time & Date
Minimum magnitude displayed is 2.5.

Coastal Water Temperatures

Place Temperature

Stations

Nearby Weather Stations

Station Location Temp. Windchill Dew Point Humidity Wind Precip. Elev Updated Type
                   

Watches & Warnings

Special Statement
Issued: 3:36 PM CST Feb. 9, 2016 – National Weather Service

... Snow tonight into Wednesday...

A quick moving clipper will likely produce 1 to 3 inches of snow
for the Devils Lake basin and into Valley City to Forman area by
early afternoon on Wednesday. There is also chance for a narrow
area of heavier snowfall... up to 5 inches... within this snow
band.



Jk


336 PM CST Tue Feb 9 2016

... Snow tonight into Wednesday...

A quick moving clipper will likely produce 1 to 3 inches of snow
for the Devils Lake basin and into Valley City to Forman area by
early afternoon on Wednesday. There is also chance for a narrow
area of heavier snowfall... up to 5 inches... within this snow
band.



Jk